<?xml version="1.0" encoding="UTF-8" standalone="no" ?>
<gpx xmlns="http://www.topografix.com/GPX/1/1" xmlns:xsi="http://www.w3.org/2001/XMLSchema-instance" xsi:schemaLocation="http://www.topografix.com/GPX/1/1 http://www.topografix.com/GPX/1/1/gpx.xsd" version="1.1" creator="VisuGPX - https://www.visugpx.com">
  <metadata>
    <name>octobre rose 5 km sur TraceDeTrail.fr</name>
    <desc><![CDATA[Marche octobre rose. 
Entre ville et campagne]]></desc>
  </metadata>
  <trk>
    <name><![CDATA[octobre rose 5 km sur TraceDeTrail.fr]]></name>
    <extensions>
      <line xmlns="http://www.topografix.com/GPX/gpx_style/0/2">
        <color>0000FF</color>
        <width>4</width>
      </line>
    </extensions>
    <trkseg>
      <trkpt lat="49.38717" lon="2.39903">
        <ele>56</ele>
        <time>2000-01-01T01:18:18.000Z</time>
      </trkpt>
      <trkpt lat="49.38714" lon="2.39962">
        <ele>56</ele>
        <time>2000-01-01T01:18:28.000Z</time>
      </trkpt>
      <trkpt lat="49.38701" lon="2.39963">
        <ele>58.8</ele>
        <time>2000-01-01T01:18:38.000Z</time>
      </trkpt>
      <trkpt lat="49.38698" lon="2.39982">
        <ele>56</ele>
        <time>2000-01-01T01:18:48.000Z</time>
      </trkpt>
      <trkpt lat="49.38698" lon="2.3999">
        <ele>58.2</ele>
        <time>2000-01-01T01:18:58.000Z</time>
      </trkpt>
      <trkpt lat="49.38702" lon="2.40003">
        <ele>57.7</ele>
        <time>2000-01-01T01:19:08.000Z</time>
      </trkpt>
      <trkpt lat="49.38597" lon="2.40134">
        <ele>53</ele>
        <time>2000-01-01T01:19:18.000Z</time>
      </trkpt>
      <trkpt lat="49.38593" lon="2.40114">
        <ele>60</ele>
        <time>2000-01-01T01:19:28.000Z</time>
      </trkpt>
      <trkpt lat="49.38588" lon="2.40102">
        <ele>52</ele>
        <time>2000-01-01T01:19:38.000Z</time>
      </trkpt>
      <trkpt lat="49.38555" lon="2.401">
        <ele>54</ele>
        <time>2000-01-01T01:19:48.000Z</time>
      </trkpt>
      <trkpt lat="49.38522" lon="2.40099">
        <ele>57</ele>
        <time>2000-01-01T01:19:58.000Z</time>
      </trkpt>
      <trkpt lat="49.38489" lon="2.40098">
        <ele>58</ele>
        <time>2000-01-01T01:20:08.000Z</time>
      </trkpt>
      <trkpt lat="49.38451" lon="2.40097">
        <ele>58</ele>
        <time>2000-01-01T01:20:18.000Z</time>
      </trkpt>
      <trkpt lat="49.38447" lon="2.40085">
        <ele>62</ele>
        <time>2000-01-01T01:20:28.000Z</time>
      </trkpt>
      <trkpt lat="49.38435" lon="2.40088">
        <ele>58</ele>
        <time>2000-01-01T01:20:38.000Z</time>
      </trkpt>
      <trkpt lat="49.38396" lon="2.40069">
        <ele>56</ele>
        <time>2000-01-01T01:20:48.000Z</time>
      </trkpt>
      <trkpt lat="49.38384" lon="2.40067">
        <ele>61.5</ele>
        <time>2000-01-01T01:20:58.000Z</time>
      </trkpt>
      <trkpt lat="49.38377" lon="2.40068">
        <ele>55</ele>
        <time>2000-01-01T01:21:08.000Z</time>
      </trkpt>
      <trkpt lat="49.38374" lon="2.40061">
        <ele>61.6</ele>
        <time>2000-01-01T01:21:18.000Z</time>
      </trkpt>
      <trkpt lat="49.38358" lon="2.40054">
        <ele>55</ele>
        <time>2000-01-01T01:21:28.000Z</time>
      </trkpt>
      <trkpt lat="49.38343" lon="2.40099">
        <ele>58</ele>
        <time>2000-01-01T01:21:38.000Z</time>
      </trkpt>
      <trkpt lat="49.38328" lon="2.40144">
        <ele>58</ele>
        <time>2000-01-01T01:21:48.000Z</time>
      </trkpt>
      <trkpt lat="49.383" lon="2.4023">
        <ele>58</ele>
        <time>2000-01-01T01:21:58.000Z</time>
      </trkpt>
      <trkpt lat="49.38286" lon="2.40233">
        <ele>63.8</ele>
        <time>2000-01-01T01:22:08.000Z</time>
      </trkpt>
      <trkpt lat="49.3828" lon="2.40228">
        <ele>58</ele>
        <time>2000-01-01T01:22:18.000Z</time>
      </trkpt>
      <trkpt lat="49.38267" lon="2.40191">
        <ele>63</ele>
        <time>2000-01-01T01:22:28.000Z</time>
      </trkpt>
      <trkpt lat="49.38247" lon="2.40131">
        <ele>65</ele>
        <time>2000-01-01T01:22:38.000Z</time>
      </trkpt>
      <trkpt lat="49.38226" lon="2.40094">
        <ele>66</ele>
        <time>2000-01-01T01:22:48.000Z</time>
      </trkpt>
      <trkpt lat="49.38205" lon="2.40058">
        <ele>66</ele>
        <time>2000-01-01T01:22:58.000Z</time>
      </trkpt>
      <trkpt lat="49.38172" lon="2.39999">
        <ele>67</ele>
        <time>2000-01-01T01:23:08.000Z</time>
      </trkpt>
      <trkpt lat="49.38165" lon="2.39985">
        <ele>65.1</ele>
        <time>2000-01-01T01:23:18.000Z</time>
      </trkpt>
      <trkpt lat="49.38024" lon="2.39911">
        <ele>76</ele>
        <time>2000-01-01T01:23:28.000Z</time>
      </trkpt>
      <trkpt lat="49.38013" lon="2.39956">
        <ele>78</ele>
        <time>2000-01-01T01:23:38.000Z</time>
      </trkpt>
      <trkpt lat="49.38001" lon="2.40001">
        <ele>79</ele>
        <time>2000-01-01T01:23:48.000Z</time>
      </trkpt>
      <trkpt lat="49.37983" lon="2.40069">
        <ele>80</ele>
        <time>2000-01-01T01:23:58.000Z</time>
      </trkpt>
      <trkpt lat="49.37961" lon="2.4004">
        <ele>81</ele>
        <time>2000-01-01T01:24:08.000Z</time>
      </trkpt>
      <trkpt lat="49.37955" lon="2.4003">
        <ele>80.6</ele>
        <time>2000-01-01T01:24:18.000Z</time>
      </trkpt>
      <trkpt lat="49.37927" lon="2.4001">
        <ele>83</ele>
        <time>2000-01-01T01:24:28.000Z</time>
      </trkpt>
      <trkpt lat="49.37894" lon="2.40014">
        <ele>85</ele>
        <time>2000-01-01T01:24:38.000Z</time>
      </trkpt>
      <trkpt lat="49.37861" lon="2.40019">
        <ele>85</ele>
        <time>2000-01-01T01:24:48.000Z</time>
      </trkpt>
      <trkpt lat="49.37829" lon="2.40023">
        <ele>90</ele>
        <time>2000-01-01T01:24:58.000Z</time>
      </trkpt>
      <trkpt lat="49.37794" lon="2.40027">
        <ele>95</ele>
        <time>2000-01-01T01:25:08.000Z</time>
      </trkpt>
      <trkpt lat="49.37772" lon="2.40023">
        <ele>95</ele>
        <time>2000-01-01T01:25:18.000Z</time>
      </trkpt>
      <trkpt lat="49.37754" lon="2.39999">
        <ele>96</ele>
        <time>2000-01-01T01:25:28.000Z</time>
      </trkpt>
      <trkpt lat="49.3772" lon="2.39986">
        <ele>98</ele>
        <time>2000-01-01T01:25:38.000Z</time>
      </trkpt>
      <trkpt lat="49.37695" lon="2.39985">
        <ele>111</ele>
        <time>2000-01-01T01:25:48.000Z</time>
      </trkpt>
      <trkpt lat="49.37662" lon="2.39983">
        <ele>112</ele>
        <time>2000-01-01T01:25:58.000Z</time>
      </trkpt>
      <trkpt lat="49.37649" lon="2.39981">
        <ele>99</ele>
        <time>2000-01-01T01:26:08.000Z</time>
      </trkpt>
      <trkpt lat="49.3766" lon="2.40081">
        <ele>112</ele>
        <time>2000-01-01T01:26:18.000Z</time>
      </trkpt>
      <trkpt lat="49.37661" lon="2.40116">
        <ele>112</ele>
        <time>2000-01-01T01:26:28.000Z</time>
      </trkpt>
      <trkpt lat="49.37662" lon="2.40154">
        <ele>116</ele>
        <time>2000-01-01T01:26:38.000Z</time>
      </trkpt>
      <trkpt lat="49.37671" lon="2.40191">
        <ele>120</ele>
        <time>2000-01-01T01:26:48.000Z</time>
      </trkpt>
      <trkpt lat="49.37679" lon="2.40232">
        <ele>120</ele>
        <time>2000-01-01T01:26:58.000Z</time>
      </trkpt>
      <trkpt lat="49.37672" lon="2.40253">
        <ele>103.4</ele>
        <time>2000-01-01T01:27:08.000Z</time>
      </trkpt>
      <trkpt lat="49.37681" lon="2.40271">
        <ele>117</ele>
        <time>2000-01-01T01:27:18.000Z</time>
      </trkpt>
      <trkpt lat="49.37694" lon="2.40274">
        <ele>101</ele>
        <time>2000-01-01T01:27:28.000Z</time>
      </trkpt>
      <trkpt lat="49.37661" lon="2.40398">
        <ele>114</ele>
        <time>2000-01-01T01:27:38.000Z</time>
      </trkpt>
      <trkpt lat="49.37635" lon="2.40382">
        <ele>115</ele>
        <time>2000-01-01T01:27:48.000Z</time>
      </trkpt>
      <trkpt lat="49.37588" lon="2.40353">
        <ele>116</ele>
        <time>2000-01-01T01:27:58.000Z</time>
      </trkpt>
      <trkpt lat="49.37563" lon="2.40355">
        <ele>124</ele>
        <time>2000-01-01T01:28:08.000Z</time>
      </trkpt>
      <trkpt lat="49.37541" lon="2.40409">
        <ele>130</ele>
        <time>2000-01-01T01:28:18.000Z</time>
      </trkpt>
      <trkpt lat="49.37523" lon="2.40415">
        <ele>130</ele>
        <time>2000-01-01T01:28:28.000Z</time>
      </trkpt>
      <trkpt lat="49.37508" lon="2.40445">
        <ele>130</ele>
        <time>2000-01-01T01:28:38.000Z</time>
      </trkpt>
      <trkpt lat="49.37488" lon="2.40483">
        <ele>127</ele>
        <time>2000-01-01T01:28:48.000Z</time>
      </trkpt>
      <trkpt lat="49.37481" lon="2.40485">
        <ele>124.9</ele>
        <time>2000-01-01T01:28:58.000Z</time>
      </trkpt>
      <trkpt lat="49.37467" lon="2.40507">
        <ele>125</ele>
        <time>2000-01-01T01:29:08.000Z</time>
      </trkpt>
      <trkpt lat="49.37449" lon="2.40543">
        <ele>122</ele>
        <time>2000-01-01T01:29:18.000Z</time>
      </trkpt>
      <trkpt lat="49.37431" lon="2.4058">
        <ele>112</ele>
        <time>2000-01-01T01:29:28.000Z</time>
      </trkpt>
      <trkpt lat="49.37411" lon="2.40621">
        <ele>109</ele>
        <time>2000-01-01T01:29:38.000Z</time>
      </trkpt>
      <trkpt lat="49.37431" lon="2.40644">
        <ele>108</ele>
        <time>2000-01-01T01:29:48.000Z</time>
      </trkpt>
      <trkpt lat="49.37457" lon="2.40676">
        <ele>108</ele>
        <time>2000-01-01T01:29:58.000Z</time>
      </trkpt>
      <trkpt lat="49.37482" lon="2.40717">
        <ele>108</ele>
        <time>2000-01-01T01:30:08.000Z</time>
      </trkpt>
      <trkpt lat="49.37504" lon="2.40724">
        <ele>106</ele>
        <time>2000-01-01T01:30:18.000Z</time>
      </trkpt>
      <trkpt lat="49.37531" lon="2.40751">
        <ele>106</ele>
        <time>2000-01-01T01:30:28.000Z</time>
      </trkpt>
      <trkpt lat="49.3754" lon="2.40717">
        <ele>106</ele>
        <time>2000-01-01T01:30:38.000Z</time>
      </trkpt>
      <trkpt lat="49.37551" lon="2.40677">
        <ele>108</ele>
        <time>2000-01-01T01:30:48.000Z</time>
      </trkpt>
      <trkpt lat="49.37562" lon="2.4068">
        <ele>97.3</ele>
        <time>2000-01-01T01:30:58.000Z</time>
      </trkpt>
      <trkpt lat="49.3759" lon="2.40637">
        <ele>108</ele>
        <time>2000-01-01T01:31:08.000Z</time>
      </trkpt>
      <trkpt lat="49.37583" lon="2.40625">
        <ele>99.5</ele>
        <time>2000-01-01T01:31:18.000Z</time>
      </trkpt>
      <trkpt lat="49.37619" lon="2.4055">
        <ele>107</ele>
        <time>2000-01-01T01:31:28.000Z</time>
      </trkpt>
      <trkpt lat="49.37641" lon="2.40572">
        <ele>106</ele>
        <time>2000-01-01T01:31:38.000Z</time>
      </trkpt>
      <trkpt lat="49.37673" lon="2.40605">
        <ele>98</ele>
        <time>2000-01-01T01:31:48.000Z</time>
      </trkpt>
      <trkpt lat="49.37689" lon="2.4062">
        <ele>98</ele>
        <time>2000-01-01T01:31:58.000Z</time>
      </trkpt>
      <trkpt lat="49.37719" lon="2.40575">
        <ele>93</ele>
        <time>2000-01-01T01:32:08.000Z</time>
      </trkpt>
      <trkpt lat="49.37736" lon="2.40582">
        <ele>90.1</ele>
        <time>2000-01-01T01:32:18.000Z</time>
      </trkpt>
      <trkpt lat="49.37764" lon="2.4058">
        <ele>92</ele>
        <time>2000-01-01T01:32:28.000Z</time>
      </trkpt>
      <trkpt lat="49.37782" lon="2.40548">
        <ele>92</ele>
        <time>2000-01-01T01:32:38.000Z</time>
      </trkpt>
      <trkpt lat="49.37794" lon="2.40497">
        <ele>91</ele>
        <time>2000-01-01T01:32:48.000Z</time>
      </trkpt>
      <trkpt lat="49.37802" lon="2.40452">
        <ele>91</ele>
        <time>2000-01-01T01:32:58.000Z</time>
      </trkpt>
      <trkpt lat="49.3781" lon="2.40407">
        <ele>89</ele>
        <time>2000-01-01T01:33:08.000Z</time>
      </trkpt>
      <trkpt lat="49.37821" lon="2.40349">
        <ele>92</ele>
        <time>2000-01-01T01:33:18.000Z</time>
      </trkpt>
      <trkpt lat="49.37823" lon="2.40282">
        <ele>96</ele>
        <time>2000-01-01T01:33:28.000Z</time>
      </trkpt>
      <trkpt lat="49.3782" lon="2.40247">
        <ele>97</ele>
        <time>2000-01-01T01:33:38.000Z</time>
      </trkpt>
      <trkpt lat="49.37817" lon="2.40207">
        <ele>92</ele>
        <time>2000-01-01T01:33:48.000Z</time>
      </trkpt>
      <trkpt lat="49.37826" lon="2.40195">
        <ele>90.1</ele>
        <time>2000-01-01T01:33:58.000Z</time>
      </trkpt>
      <trkpt lat="49.37854" lon="2.40172">
        <ele>88</ele>
        <time>2000-01-01T01:34:08.000Z</time>
      </trkpt>
      <trkpt lat="49.37877" lon="2.40168">
        <ele>88</ele>
        <time>2000-01-01T01:34:18.000Z</time>
      </trkpt>
      <trkpt lat="49.37901" lon="2.40163">
        <ele>86</ele>
        <time>2000-01-01T01:34:28.000Z</time>
      </trkpt>
      <trkpt lat="49.37922" lon="2.40148">
        <ele>86</ele>
        <time>2000-01-01T01:34:38.000Z</time>
      </trkpt>
      <trkpt lat="49.37946" lon="2.40132">
        <ele>84</ele>
        <time>2000-01-01T01:34:48.000Z</time>
      </trkpt>
      <trkpt lat="49.37956" lon="2.40129">
        <ele>79.4</ele>
        <time>2000-01-01T01:34:58.000Z</time>
      </trkpt>
      <trkpt lat="49.37972" lon="2.40128">
        <ele>82</ele>
        <time>2000-01-01T01:35:08.000Z</time>
      </trkpt>
      <trkpt lat="49.37971" lon="2.40174">
        <ele>81</ele>
        <time>2000-01-01T01:35:18.000Z</time>
      </trkpt>
      <trkpt lat="49.3797" lon="2.40219">
        <ele>80</ele>
        <time>2000-01-01T01:35:28.000Z</time>
      </trkpt>
      <trkpt lat="49.37969" lon="2.40268">
        <ele>80</ele>
        <time>2000-01-01T01:35:38.000Z</time>
      </trkpt>
      <trkpt lat="49.37976" lon="2.40321">
        <ele>78</ele>
        <time>2000-01-01T01:35:48.000Z</time>
      </trkpt>
      <trkpt lat="49.37982" lon="2.40375">
        <ele>77</ele>
        <time>2000-01-01T01:35:58.000Z</time>
      </trkpt>
      <trkpt lat="49.37989" lon="2.40428">
        <ele>74</ele>
        <time>2000-01-01T01:36:08.000Z</time>
      </trkpt>
      <trkpt lat="49.37996" lon="2.40481">
        <ele>73</ele>
        <time>2000-01-01T01:36:18.000Z</time>
      </trkpt>
      <trkpt lat="49.38003" lon="2.40536">
        <ele>72</ele>
        <time>2000-01-01T01:36:28.000Z</time>
      </trkpt>
      <trkpt lat="49.38014" lon="2.40532">
        <ele>73.5</ele>
        <time>2000-01-01T01:36:38.000Z</time>
      </trkpt>
      <trkpt lat="49.38066" lon="2.40397">
        <ele>71</ele>
        <time>2000-01-01T01:36:48.000Z</time>
      </trkpt>
      <trkpt lat="49.38076" lon="2.40354">
        <ele>70</ele>
        <time>2000-01-01T01:36:58.000Z</time>
      </trkpt>
      <trkpt lat="49.38086" lon="2.40311">
        <ele>65</ele>
        <time>2000-01-01T01:37:08.000Z</time>
      </trkpt>
      <trkpt lat="49.38097" lon="2.40266">
        <ele>63</ele>
        <time>2000-01-01T01:37:18.000Z</time>
      </trkpt>
      <trkpt lat="49.38106" lon="2.40231">
        <ele>63</ele>
        <time>2000-01-01T01:37:28.000Z</time>
      </trkpt>
      <trkpt lat="49.38118" lon="2.40184">
        <ele>64</ele>
        <time>2000-01-01T01:37:38.000Z</time>
      </trkpt>
      <trkpt lat="49.3814" lon="2.40195">
        <ele>65</ele>
        <time>2000-01-01T01:37:48.000Z</time>
      </trkpt>
      <trkpt lat="49.38162" lon="2.40206">
        <ele>65</ele>
        <time>2000-01-01T01:37:58.000Z</time>
      </trkpt>
      <trkpt lat="49.38189" lon="2.4022">
        <ele>65</ele>
        <time>2000-01-01T01:38:08.000Z</time>
      </trkpt>
      <trkpt lat="49.3824" lon="2.40246">
        <ele>64</ele>
        <time>2000-01-01T01:38:18.000Z</time>
      </trkpt>
      <trkpt lat="49.38243" lon="2.40207">
        <ele>64</ele>
        <time>2000-01-01T01:38:28.000Z</time>
      </trkpt>
      <trkpt lat="49.38248" lon="2.40154">
        <ele>62</ele>
        <time>2000-01-01T01:38:38.000Z</time>
      </trkpt>
      <trkpt lat="49.38252" lon="2.40099">
        <ele>61</ele>
        <time>2000-01-01T01:38:48.000Z</time>
      </trkpt>
      <trkpt lat="49.38257" lon="2.40047">
        <ele>58</ele>
        <time>2000-01-01T01:38:58.000Z</time>
      </trkpt>
      <trkpt lat="49.38261" lon="2.39995">
        <ele>58</ele>
        <time>2000-01-01T01:39:08.000Z</time>
      </trkpt>
      <trkpt lat="49.38265" lon="2.39944">
        <ele>60</ele>
        <time>2000-01-01T01:39:18.000Z</time>
      </trkpt>
      <trkpt lat="49.38271" lon="2.39871">
        <ele>62</ele>
        <time>2000-01-01T01:39:28.000Z</time>
      </trkpt>
      <trkpt lat="49.38294" lon="2.39874">
        <ele>62</ele>
        <time>2000-01-01T01:39:38.000Z</time>
      </trkpt>
      <trkpt lat="49.38323" lon="2.39878">
        <ele>54</ele>
        <time>2000-01-01T01:39:48.000Z</time>
      </trkpt>
      <trkpt lat="49.38351" lon="2.39889">
        <ele>53</ele>
        <time>2000-01-01T01:39:58.000Z</time>
      </trkpt>
      <trkpt lat="49.38406" lon="2.39911">
        <ele>54</ele>
        <time>2000-01-01T01:40:08.000Z</time>
      </trkpt>
      <trkpt lat="49.38419" lon="2.39921">
        <ele>61</ele>
        <time>2000-01-01T01:40:18.000Z</time>
      </trkpt>
      <trkpt lat="49.38376" lon="2.40057">
        <ele>52</ele>
        <time>2000-01-01T01:40:28.000Z</time>
      </trkpt>
      <trkpt lat="49.38386" lon="2.40061">
        <ele>61.3</ele>
        <time>2000-01-01T01:40:38.000Z</time>
      </trkpt>
      <trkpt lat="49.38399" lon="2.40064">
        <ele>53</ele>
        <time>2000-01-01T01:40:48.000Z</time>
      </trkpt>
      <trkpt lat="49.38414" lon="2.40057">
        <ele>61.9</ele>
        <time>2000-01-01T01:40:58.000Z</time>
      </trkpt>
      <trkpt lat="49.38444" lon="2.4">
        <ele>54</ele>
        <time>2000-01-01T01:41:08.000Z</time>
      </trkpt>
      <trkpt lat="49.38479" lon="2.40005">
        <ele>58</ele>
        <time>2000-01-01T01:41:18.000Z</time>
      </trkpt>
      <trkpt lat="49.38481" lon="2.39984">
        <ele>61.6</ele>
        <time>2000-01-01T01:41:28.000Z</time>
      </trkpt>
      <trkpt lat="49.38494" lon="2.39985">
        <ele>58</ele>
        <time>2000-01-01T01:41:38.000Z</time>
      </trkpt>
      <trkpt lat="49.385" lon="2.3995">
        <ele>58</ele>
        <time>2000-01-01T01:41:48.000Z</time>
      </trkpt>
      <trkpt lat="49.38514" lon="2.39945">
        <ele>61</ele>
        <time>2000-01-01T01:41:58.000Z</time>
      </trkpt>
      <trkpt lat="49.38561" lon="2.39871">
        <ele>69</ele>
        <time>2000-01-01T01:42:08.000Z</time>
      </trkpt>
      <trkpt lat="49.38588" lon="2.39827">
        <ele>70</ele>
        <time>2000-01-01T01:42:18.000Z</time>
      </trkpt>
      <trkpt lat="49.38599" lon="2.3982">
        <ele>61.2</ele>
        <time>2000-01-01T01:42:28.000Z</time>
      </trkpt>
      <trkpt lat="49.38626" lon="2.39839">
        <ele>70</ele>
        <time>2000-01-01T01:42:38.000Z</time>
      </trkpt>
      <trkpt lat="49.38624" lon="2.39807">
        <ele>69</ele>
        <time>2000-01-01T01:42:48.000Z</time>
      </trkpt>
      <trkpt lat="49.3864" lon="2.39818">
        <ele>61</ele>
        <time>2000-01-01T01:42:58.000Z</time>
      </trkpt>
      <trkpt lat="49.38655" lon="2.39812">
        <ele>69</ele>
        <time>2000-01-01T01:43:08.000Z</time>
      </trkpt>
      <trkpt lat="49.38665" lon="2.39809">
        <ele>61</ele>
        <time>2000-01-01T01:43:18.000Z</time>
      </trkpt>
      <trkpt lat="49.3868" lon="2.3981">
        <ele>63</ele>
        <time>2000-01-01T01:43:28.000Z</time>
      </trkpt>
      <trkpt lat="49.38685" lon="2.39808">
        <ele>59.7</ele>
        <time>2000-01-01T01:43:38.000Z</time>
      </trkpt>
      <trkpt lat="49.38682" lon="2.39844">
        <ele>61</ele>
        <time>2000-01-01T01:43:48.000Z</time>
      </trkpt>
      <trkpt lat="49.38695" lon="2.39863">
        <ele>58</ele>
        <time>2000-01-01T01:43:58.000Z</time>
      </trkpt>
      <trkpt lat="49.38705" lon="2.39868">
        <ele>59</ele>
        <time>2000-01-01T01:44:08.000Z</time>
      </trkpt>
      <trkpt lat="49.38714" lon="2.39871">
        <ele>56</ele>
        <time>2000-01-01T01:44:18.000Z</time>
      </trkpt>
      <trkpt lat="49.38716" lon="2.39897">
        <ele>58.8</ele>
        <time>2000-01-01T01:44:28.000Z</time>
      </trkpt>
      <trkpt lat="49.38717" lon="2.39903">
        <ele>56</ele>
        <time>2000-01-01T01:44:38.000Z</time>
      </trkpt>
    </trkseg>
  </trk>
</gpx>